^^

Nearby METAR Reports

 

LIRH - Frosinone (it-Af, Italy
Distance from station: SO 5km
Dati ricevuti: 18/05/2021 07:55
Sereno
Sereno
 Vento da calm
Vento: Calma
Temperatura: 10°C
P.to Rugiada: 8°C
Umidità: 88%
Barometro: 1015 hPa
Summary: Sereno
Visibility: greater than 10 km
2021/05/18 05:55 LIRH 180555Z 00000KT CAVOK 10/08 Q1015
LIRL - Latina (it-Afb), Italy
Distance from station: OSO 40km
Dati ricevuti: 18/05/2021 07:55
Few Clouds
Few Clouds
 Vento da E
Vento: E 2 km/h
Temperatura: 12°C
P.to Rugiada: 11°C
Umidità: 94%
Barometro: 1015 hPa
Clouds: Few Clouds
Visibility: 10 km
Cloud details: Few Clouds 1219 m
2021/05/18 05:55 LIRL 180555Z 10001KT 9999 FEW040 12/11 Q1015
 
LIRG - Guidonia (it-Afb, Italy
Distance from station: NO 63km
Dati ricevuti: 18/05/2021 07:55
Sereno
Sereno
 Vento da varies
Vento: varies 2 km/h
Temperatura: 12°C
P.to Rugiada: 8°C
Umidità: 77%
Barometro: 1016 hPa
Summary: Sereno
Visibility: greater than 10 km
2021/05/18 05:55 LIRG 180555Z VRB01KT CAVOK 12/08 Q1016
LIRA - Ciampino(It-Afb/, Italy
Distance from station: ONO 64km
Dati ricevuti: 18/05/2021 08:20
Sereno
Sereno
 Vento da NNO
Vento: NNO 7 km/h
Temperatura: 14°C
P.to Rugiada: 9°C
Umidità: 72%
Barometro: 1016 hPa
Summary: Sereno
Visibility: greater than 10 km
2021/05/18 06:20 LIRA 180620Z 33004KT CAVOK 14/09 Q1016
 
LIRU - Roma/Urbe (it-Af, Italy
Distance from station: ONO 76km
Dati ricevuti: 18/05/2021 07:58
Sereno
Sereno
 Vento da varies
Vento: varies 2 km/h
Temperatura: 12°C
P.to Rugiada: 9°C
Umidità: 82%
Barometro: 1016 hPa
Summary: Sereno
Visibility: greater than 10 km
2021/05/18 05:58 LIRU 180558Z VRB01KT CAVOK 12/09 Q1016
LIRE - Pratica Di Mare(, Italy
Distance from station: O 77km
Dati ricevuti: 18/05/2021 07:55
Sereno
Sereno
 Vento da NNO
Vento: NNO 9 km/h
Temperatura: 13°C
P.to Rugiada: 9°C
Umidità: 77%
Barometro: 1015 hPa
Summary: Sereno
Visibility: greater than 10 km
2021/05/18 05:55 LIRE 180555Z 34005KT CAVOK 13/09 Q1015 RMK SCT SCT200 VIS MIN 9999 WIND THR13 15005KT WIND THR31 /////KT BLU
 
LIQN - Rieti, Italy
Distance from station: NNO 92km
Dati ricevuti: 17/05/2021 19:50
Non Attivo
Sereno
Sereno
 Vento da OSO
Vento: OSO 9 km/h
Temperatura: 19°C
P.to Rugiada: 9°C
Umidità: 52%
Barometro: 1012 hPa
Summary: Sereno
Visibility: greater than 10 km
2021/05/17 17:50 LIQN 171750Z 25005KT 210V270 CAVOK 19/09 Q1012
LIRK - Terminillo, Italy
Distance from station: NNO 93km
Dati ricevuti: 18/05/2021 07:55

 Vento da NNO
Vento: NNO 17 km/h
Temperatura: 4°C
Temperatura del Vento: 0°C
P.to Rugiada: -4°C
Umidità: 56%
Barometro: 1018 hPa
2021/05/18 05:55 LIRK 180555Z AUTO 33009KT //// 04/M04 Q1018
 
LIRF - Roma/Fiumicino, Italy
Distance from station: O 94km
Dati ricevuti: 18/05/2021 08:20
Sereno
Sereno
 Vento da varies
Vento: varies 2 km/h
Temperatura: 16°C
P.to Rugiada: 8°C
Umidità: 59%
Barometro: 1016 hPa
Summary: Sereno
Visibility: greater than 10 km
2021/05/18 06:20 LIRF 180620Z VRB01KT CAVOK 16/08 Q1016 NOSIG
LIRM - Grazzanise (it-A, Italy
Distance from station: SE 94km
Dati ricevuti: 18/05/2021 07:55
Few Clouds
Few Clouds
 Vento da varies
Vento: varies 0 km/h
Temperatura: 14°C
P.to Rugiada: 12°C
Umidità: 88%
Barometro: 1015 hPa
Clouds: Few Clouds
Visibility: 8 km
Cloud details: Few Clouds 610 m
2021/05/18 05:55 LIRM 180555Z /////KT 8000 FEW020 14/12 Q1015
 
LIBP - Pescara, Italy
Distance from station: NE 108km
Dati ricevuti: 18/05/2021 08:20
Sereno
Sereno
 Vento da SO
Vento: SO 17 km/h
Temperatura: 19°C
P.to Rugiada: 6°C
Umidità: 43%
Barometro: 1014 hPa
Clouds: Sereno
Visibility: 10 km
2021/05/18 06:20 LIBP 180620Z AUTO 23009KT 9999 NCD 19/06 Q1014
LIRN - Napoli/Capodichino, Italy
Distance from station: SE 120km
Dati ricevuti: 18/05/2021 07:50
Few Clouds
Few Clouds
 Vento da varies
Vento: varies 2 km/h
Temperatura: 17°C
P.to Rugiada: 12°C
Umidità: 73%
Barometro: 1016 hPa
Clouds: Few Clouds
Visibility: 10 km
Cloud details: Few Clouds 914 m
2021/05/18 05:50 LIRN 180550Z VRB01KT 9999 FEW030 17/12 Q1016 NOSIG
 
LIRV - Viterbo (it-Mil), Italy
Distance from station: NO 133km
Dati ricevuti: 18/05/2021 07:55
Sereno
Sereno
 Vento da NE
Vento: NE 9 km/h
Temperatura: 11°C
P.to Rugiada: 9°C
Umidità: 88%
Barometro: 1015 hPa
Summary: Sereno
Visibility: greater than 10 km
2021/05/18 05:55 LIRV 180555Z 05005KT CAVOK 11/09 Q1015
LIQC - Capri, Italy
Distance from station: SSE 145km
Dati ricevuti: 18/05/2021 07:55
Sereno
Sereno
 Vento da SO
Vento: SO 7 km/h
Temperatura: 16°C
P.to Rugiada: 13°C
Umidità: 83%
Barometro: 1016 hPa
Summary: Sereno
Visibility: greater than 10 km
2021/05/18 05:55 LIQC 180555Z 22004KT CAVOK 16/13 Q1016 RMK SKC QUK 2 QUL 1 SW VIS MAR 15 KM VIS MIN 9999
 
LIRT - Trevico, Italy
Distance from station: ESE 172km
Dati ricevuti: 18/05/2021 07:55
Nebbia
Nebbia
 Vento da ONO
Vento: ONO 11 km/h
Temperatura: 8°C
Temperatura del Vento: 6°C
P.to Rugiada: 7°C
Umidità: 93%
Barometro: 1016 hPa
Summary: Nebbia
Visibility: 0 km
2021/05/18 05:55 LIRT 180555Z 29006KT 0000 FG VV/// 08/07 Q1016 RMK MON INVIS VAL INVIS VIS MIN 0000
LIRZ - Perugia, Italy
Distance from station: NNO 172km
Dati ricevuti: 18/05/2021 08:20
Sereno
Sereno
 Vento da varies
Vento: varies 2 km/h
Temperatura: 12°C
P.to Rugiada: 9°C
Umidità: 82%
Barometro: 1016 hPa
Clouds: Sereno
Visibility: 10 km
2021/05/18 06:20 LIRZ 180620Z AUTO VRB01KT 9999 NCD 12/09 Q1016
 
LIRI - Pontecagnano (af, Italy
Distance from station: SE 177km
Dati ricevuti: 17/05/2021 16:50
Non Attivo
Molto nuvoloso
Molto nuvoloso
 Vento da SO
Vento: SO 20 km/h
Temperatura: 20°C
P.to Rugiada: 16°C
Umidità: 78%
Barometro: 1012 hPa
Clouds: Molto nuvoloso
Visibility: 10 km
Cloud details: Molto nuvoloso 610 m
2021/05/17 14:50 LIRI 171450Z 23011KT 200V260 9999 BKN020 20/16 Q1012
LIBF - Foggia/Gino Lisa, Italy
Distance from station: E 183km
Dati ricevuti: 17/05/2021 17:50
Non Attivo
Few Clouds
Few Clouds
 Vento da OSO
Vento: OSO 35 km/h
Temperatura: 24°C
P.to Rugiada: 12°C
Umidità: 47%
Barometro: 1007 hPa
Clouds: Few Clouds
Visibility: 10 km
Cloud details: Few Clouds 914 m
2021/05/17 15:50 LIBF 171550Z 24019KT 9999 FEW030 24/12 Q1007
 
LIQO - Monte Argentario, Italy
Distance from station: ONO 195km
Dati ricevuti: 17/05/2021 08:55
Non Attivo
Few Clouds
Few Clouds
 Vento da SSO
Vento: SSO 28 km/h
Temperatura: 14°C
P.to Rugiada: 13°C
Umidità: 94%
Barometro: 1009 hPa
Clouds: Few Clouds
Visibility: 10 km
Cloud details: Few Clouds 30 m
2021/05/17 06:55 LIQO 170655Z 20015KT 9999 FEW001 14/13 Q1009 RMK BKN SCT200 VAL MAR CLD DIM ELEV VIS MIN 9999
LIBA - Amendola (it-Afb, Italy
Distance from station: E 198km
Dati ricevuti: 18/05/2021 07:55
Sereno
Sereno
 Vento da O
Vento: O 11 km/h
Temperatura: 16°C
P.to Rugiada: 11°C
Umidità: 72%
Barometro: 1014 hPa
Summary: Sereno
Visibility: greater than 10 km
2021/05/18 05:55 LIBA 180555Z 26006KT CAVOK 16/11 Q1014 RMK SKC VIS MIN 9999 WIND THR11 28007KT WIND THR29 /////KT BLU
 
LIBN - Lecce (it-Afb), Italy
Dati ricevuti: 18/05/2021 07:55
Few Clouds
Few Clouds
 Vento da ONO
Vento: ONO 13 km/h
Temperatura: 19°C
P.to Rugiada: 12°C
Umidità: 64%
Barometro: 1013 hPa
Clouds: Few Clouds
Visibility: 10 km
Cloud details: Few Clouds 1219 m
2021/05/18 05:55 LIBN 180555Z 30007KT 9999 FEW040 19/12 Q1013 RMK FEW VIS MIN 9999 WIND THR14 30008KT WIND THR32 32008KT BLU
LIPY - Ancona-Falconara, Italy
Dati ricevuti: 18/05/2021 08:20
Sereno
Sereno
 Vento da SSO
Vento: SSO 9 km/h
Temperatura: 19°C
P.to Rugiada: 8°C
Umidità: 49%
Barometro: 1013 hPa
Clouds: Sereno
Visibility: 10 km
2021/05/18 06:20 LIPY 180620Z AUTO 20005KT 160V230 9999 NCD 19/08 Q1013
 
LICJ - Palermo-Punta Raisi, Italy
Dati ricevuti: 18/05/2021 08:20
Sereno
Sereno
 Vento da NE
Vento: NE 20 km/h
Temperatura: 20°C
P.to Rugiada: 12°C
Umidità: 60%
Barometro: 1017 hPa
Summary: Sereno
Visibility: greater than 10 km
2021/05/18 06:20 LICJ 180620Z 04011KT CAVOK 20/12 Q1017
LIEB - Capo Bellavista, Italy
Dati ricevuti: 18/05/2021 07:55
Sereno
Sereno
 Vento da SO
Vento: SO 15 km/h
Temperatura: 17°C
P.to Rugiada: 3°C
Umidità: 39%
Barometro: 1016 hPa
Summary: Sereno
Visibility: greater than 10 km
2021/05/18 05:55 LIEB 180555Z 22008KT CAVOK 17/03 Q1016 RMK SCT SCT200 QUK 2 QUL 0 VIS MAR 30 KM MON LIB VIS MIN 9999
 
LIEC - Capo Carbonara, Italy
Dati ricevuti: 18/05/2021 07:55
Sereno
Sereno
 Vento da O
Vento: O 35 km/h
Temperatura: 18°C
P.to Rugiada: 12°C
Umidità: 68%
Barometro: 1016 hPa
Summary: Sereno
Visibility: greater than 10 km
2021/05/18 05:55 LIEC 180555Z 26019KT CAVOK 18/12 Q1016 RMK SCT FEW070 SCT200 QUK 3 QUL 0 VIS MAR 16 KM MON VIS MIN 9999
LIED - Cagliari-Decimomannu(It-A, Italy
Dati ricevuti: 18/05/2021 07:55
Sereno
Sereno
 Vento da NO
Vento: NO 9 km/h
Temperatura: 14°C
P.to Rugiada: 12°C
Umidità: 88%
Barometro: 1019 hPa
Summary: Sereno
Visibility: greater than 10 km
2021/05/18 05:55 LIED 180555Z 31005KT CAVOK 14/12 Q1019 RMK FEW FEW130 VIS MIN 9999 WIND THR35 30004KT WIND THR17 32006KT BLU
 
LIEE - Cagliari-Elmas(A, Italy
Dati ricevuti: 18/05/2021 08:20
Sereno
Sereno
 Vento da N
Vento: N 15 km/h
Temperatura: 16°C
P.to Rugiada: 11°C
Umidità: 72%
Barometro: 1019 hPa
Summary: Sereno
Visibility: greater than 10 km
2021/05/18 06:20 LIEE 180620Z 35008KT CAVOK 16/11 Q1019
LIEO - Olbia-Costa Smeralda, Italy
Dati ricevuti: 18/05/2021 08:20
Sereno
Sereno
 Vento da OSO
Vento: OSO 26 km/h
Temperatura: 17°C
P.to Rugiada: 10°C
Umidità: 64%
Barometro: 1017 hPa
Summary: Sereno
Visibility: greater than 10 km
2021/05/18 06:20 LIEO 180620Z 24014KT CAVOK 17/10 Q1017
 
LIEA - Alghero, Italy
Dati ricevuti: 18/05/2021 08:20
Sereno
Sereno
 Vento da varies
Vento: varies 2 km/h
Temperatura: 17°C
P.to Rugiada: 11°C
Umidità: 68%
Barometro: 1019 hPa
Summary: Sereno
Visibility: greater than 10 km
2021/05/18 06:20 LIEA 180620Z VRB01KT CAVOK 17/11 Q1019
LICA - Catanzaro-Lamezia Terme, Italy
Dati ricevuti: 18/05/2021 08:20
Sereno
Sereno
 Vento da O
Vento: O 22 km/h
Temperatura: 20°C
P.to Rugiada: 14°C
Umidità: 69%
Barometro: 1016 hPa
Clouds: Sereno
Visibility: 10 km
2021/05/18 06:20 LICA 180620Z AUTO 27012KT 9999 NCD 20/14 Q1016
 
LIBQ - Cosenza-Monte Scuro, Italy
Dati ricevuti: 16/05/2021 02:55
Non Attivo
Nebbia
Nebbia
 Vento da OSO
Vento: OSO 20 km/h
Temperatura: 4°C
Temperatura del Vento: -1°C
P.to Rugiada: 3°C
Umidità: 93%
Barometro: 1015 hPa
Summary: Nebbia
Visibility: 0 km
2021/05/16 00:55 LIBQ 160055Z 24011KT 210V280 0000 FG VV/// 04/03 Q1015 RMK MON INVIS VAL INVIS VIS MIN 0000
LICR - Reggio Calabria, Italy
Dati ricevuti: 18/05/2021 08:20
Sereno
Sereno
 Vento da N
Vento: N 24 km/h
Temperatura: 20°C
P.to Rugiada: 15°C
Umidità: 73%
Barometro: 1017 hPa
Clouds: Sereno
Visibility: 10 km
2021/05/18 06:20 LICR 180620Z AUTO 36013KT 320V020 9999 NCD 20/15 Q1017
 
LIBV - Bari-Gioia Del Colle, Italy
Dati ricevuti: 18/05/2021 07:55
Sereno
Sereno
 Vento da ONO
Vento: ONO 13 km/h
Temperatura: 17°C
P.to Rugiada: 9°C
Umidità: 59%
Barometro: 1013 hPa
Summary: Sereno
Visibility: greater than 10 km
2021/05/18 05:55 LIBV 180555Z 30007KT CAVOK 17/09 Q1013 RMK FEW FEW060 VIS MIN 9999 WIND THR32 33008KT WIND THR14 30007KT BLU
LIBD - Bari-Palese Macchie, Italy
Dati ricevuti: 18/05/2021 08:20
Sereno
Sereno
 Vento da ONO
Vento: ONO 15 km/h
Temperatura: 20°C
P.to Rugiada: 9°C
Umidità: 49%
Barometro: 1014 hPa
Summary: Sereno
Visibility: greater than 10 km
2021/05/18 06:20 LIBD 180620Z 29008KT 240V320 CAVOK 20/09 Q1014
 
LIBR - Brindisi-Casale, Italy
Dati ricevuti: 18/05/2021 08:20
Sereno
Sereno
 Vento da NO
Vento: NO 28 km/h
Temperatura: 19°C
P.to Rugiada: 12°C
Umidità: 64%
Barometro: 1014 hPa
Summary: Sereno
Visibility: greater than 10 km
2021/05/18 06:20 LIBR 180620Z 32015KT CAVOK 19/12 Q1014
LIRT - Trevico, Italy
Dati ricevuti: 18/05/2021 07:55
Nebbia
Nebbia
 Vento da ONO
Vento: ONO 11 km/h
Temperatura: 8°C
Temperatura del Vento: 6°C
P.to Rugiada: 7°C
Umidità: 93%
Barometro: 1016 hPa
Summary: Nebbia
Visibility: 0 km
2021/05/18 05:55 LIRT 180555Z 29006KT 0000 FG VV/// 08/07 Q1016 RMK MON INVIS VAL INVIS VIS MIN 0000
 
LICB - Comiso, Italy
Dati ricevuti: 18/05/2021 08:20
Sereno
Sereno
 Vento da OSO
Vento: OSO 6 km/h
Temperatura: 25°C
P.to Rugiada: 11°C
Umidità: 42%
Barometro: 1016 hPa
Clouds: Sereno
Visibility: 10 km
2021/05/18 06:20 LICB 180620Z AUTO 25003KT 210V280 9999 NCD 25/11 Q1016
LICL - Gela, Italy
Dati ricevuti: 18/05/2021 07:55
Sereno
Sereno
 Vento da varies
Vento: varies 6 km/h
Temperatura: 19°C
P.to Rugiada: 17°C
Umidità: 88%
Barometro: 1015 hPa
Summary: Sereno
Visibility: greater than 10 km
2021/05/18 05:55 LICL 180555Z VRB03KT CAVOK 19/17 Q1015 RMK SCT SCT200 QUK 1 QUL 0 VIS MAR 18 KM VIS MIN 9999
 
LIBN - Lecce (it-Afb), Italy
Dati ricevuti: 18/05/2021 07:55
Few Clouds
Few Clouds
 Vento da ONO
Vento: ONO 13 km/h
Temperatura: 19°C
P.to Rugiada: 12°C
Umidità: 64%
Barometro: 1013 hPa
Clouds: Few Clouds
Visibility: 10 km
Cloud details: Few Clouds 1219 m
2021/05/18 05:55 LIBN 180555Z 30007KT 9999 FEW040 19/12 Q1013 RMK FEW VIS MIN 9999 WIND THR14 30008KT WIND THR32 32008KT BLU
LICJ - Palermo-Punta Raisi, Italy
Dati ricevuti: 18/05/2021 08:20
Sereno
Sereno
 Vento da NE
Vento: NE 20 km/h
Temperatura: 20°C
P.to Rugiada: 12°C
Umidità: 60%
Barometro: 1017 hPa
Summary: Sereno
Visibility: greater than 10 km
2021/05/18 06:20 LICJ 180620Z 04011KT CAVOK 20/12 Q1017
 
LICZ - Catania-Sigonella (nas), Italy
Dati ricevuti: 18/05/2021 07:55
Sereno
Sereno
 Vento da SO
Vento: SO 4 km/h
Temperatura: 15°C
P.to Rugiada: 14°C
Umidità: 94%
Barometro: 1014 hPa
Summary: Sereno
Visibility: greater than 10 km
2021/05/18 05:55 LICZ 180555Z 22002KT CAVOK 15/14 Q1014 RMK SCT SCT160 VIS MIN 9999 WIND THR28 21002KT WIND THR10 22002KT A2997 BLU
LICC - Catania-Fontanarossa, Italy
Dati ricevuti: 18/05/2021 08:20
Sereno
Sereno
 Vento da S
Vento: S 6 km/h
Temperatura: 21°C
P.to Rugiada: 14°C
Umidità: 64%
Barometro: 1015 hPa
Summary: Sereno
Visibility: greater than 10 km
2021/05/18 06:20 LICC 180620Z 19003KT 160V220 CAVOK 21/14 Q1015
 
LICT - Trapani-Birgi (a, Italy
Dati ricevuti: 18/05/2021 07:55
Few Clouds
Few Clouds
 Vento da NE
Vento: NE 13 km/h
Temperatura: 18°C
P.to Rugiada: 17°C
Umidità: 94%
Barometro: 1016 hPa
Clouds: Few Clouds
Visibility: 10 km
Cloud details: Few Clouds 610 m
2021/05/18 05:55 LICT 180555Z 04007KT 9999 FEW020 18/17 Q1016
LICD - Agrigento-Lampedusa, Italy
Dati ricevuti: 18/05/2021 08:20
Sereno
Sereno
 Vento da NNO
Vento: NNO 30 km/h
Temperatura: 20°C
P.to Rugiada: 19°C
Umidità: 94%
Barometro: 1017 hPa
Clouds: Sereno
Visibility: 10 km
2021/05/18 06:20 LICD 180620Z AUTO 34016KT 9999 NCD 20/19 Q1017
 
LICG - Pantelleria(It-A, Italy
Dati ricevuti: 18/05/2021 07:50
Sereno
Sereno
 Vento da O
Vento: O 17 km/h
Temperatura: 15°C
P.to Rugiada: 12°C
Umidità: 82%
Barometro: 1019 hPa
Summary: Sereno
Visibility: greater than 10 km
2021/05/18 05:50 LICG 180550Z 27009KT CAVOK 15/12 Q1019
LIPX - Villafranca(Cv/M, Italy
Dati ricevuti: 18/05/2021 08:20
Sereno
Sereno
 Vento da varies
Vento: varies 2 km/h
Temperatura: 15°C
P.to Rugiada: 9°C
Umidità: 68%
Barometro: 1013 hPa
Summary: Sereno
Visibility: greater than 10 km
2021/05/18 06:20 LIPX 180620Z VRB01KT CAVOK 15/09 Q1013
 
LIPO - Brescia/Montichiari, Italy
Dati ricevuti: 18/05/2021 07:50
Sereno
Sereno
 Vento da ENE
Vento: ENE 7 km/h
Temperatura: 15°C
P.to Rugiada: 7°C
Umidità: 59%
Barometro: 1013 hPa
Clouds: Sereno
Visibility: 10 km
2021/05/18 05:50 LIPO 180550Z AUTO 06004KT 350V090 9999 NCD 15/07 Q1013
LIPL - Ghedi (it-Afb), Italy
Dati ricevuti: 18/05/2021 07:55
Sereno
Sereno
 Vento da varies
Vento: varies 0 km/h
Temperatura: 12°C
P.to Rugiada: 7°C
Umidità: 72%
Barometro: 1011 hPa
Summary: Sereno
Visibility: greater than 10 km
2021/05/18 05:55 LIPL 180555Z /////KT CAVOK 12/07 Q1011 RMK SKC VIS MIN 9999 WIND THR31 03002KT WIND THR13 /////KT BLU
 
LIMP - Parma, Italy
Dati ricevuti: 18/05/2021 07:50
Sereno
Sereno
 Vento da varies
Vento: varies 2 km/h
Temperatura: 16°C
P.to Rugiada: 6°C
Umidità: 52%
Barometro: 1013 hPa
Summary: Sereno
Visibility: greater than 10 km
2021/05/18 05:50 LIMP 180550Z VRB01KT CAVOK 16/06 Q1013
LIMS - Piacenza (it-Afb, Italy
Dati ricevuti: 18/05/2021 07:55
Sereno
Sereno
 Vento da OSO
Vento: OSO 6 km/h
Temperatura: 13°C
P.to Rugiada: 10°C
Umidità: 82%
Barometro: 1012 hPa
Summary: Sereno
Visibility: greater than 10 km
2021/05/18 05:55 LIMS 180555Z 24003KT CAVOK 13/10 Q1012
 
LIPF - Ferrara (aut), Italy
Dati ricevuti: 18/05/2021 07:55
Sereno
Sereno
 Vento da O
Vento: O 4 km/h
Temperatura: 14°C
P.to Rugiada: 8°C
Umidità: 67%
Barometro: 1012 hPa
Summary: Sereno
Visibility: greater than 10 km
2021/05/18 05:55 LIPF 180555Z 28002KT CAVOK 14/08 Q1012
LIPE - Bologna/Borgo (a, Italy
Dati ricevuti: 18/05/2021 08:50
Sereno
Sereno
 Vento da S
Vento: S 6 km/h
Temperatura: 18°C
P.to Rugiada: 7°C
Umidità: 49%
Barometro: 1013 hPa
Summary: Sereno
Visibility: greater than 10 km
2021/05/18 06:50 LIPE 180650Z 17003KT 140V210 CAVOK 18/07 Q1013
 
LIPU - Padova (civ/It-A, Italy
Dati ricevuti: 18/05/2021 08:00
Sereno
Sereno
 Vento da varies
Vento: varies 4 km/h
Temperatura: 14°C
P.to Rugiada: 11°C
Umidità: 82%
Barometro: 1012 hPa
Summary: Sereno
Visibility: greater than 10 km
2021/05/18 06:00 LIPU 180600Z VRB02KT CAVOK 14/11 Q1012
LIME - Bergamo/Orio Ser, Italy
Dati ricevuti: 18/05/2021 08:50
Sereno
Sereno
 Vento da varies
Vento: varies 4 km/h
Temperatura: 16°C
P.to Rugiada: 4°C
Umidità: 45%
Barometro: 1013 hPa
Summary: Sereno
Visibility: greater than 10 km
2021/05/18 06:50 LIME 180650Z VRB02KT CAVOK 16/04 Q1013 NOSIG
 
LIMT - Cisa Pass, Italy
Dati ricevuti: 23/09/2019 13:55
Non Attivo
Nebbia
Nebbia
 Vento da calm
Vento: Calma
Temperatura: 10°C
P.to Rugiada: 10°C
Umidità: 100%
Barometro: 1014 hPa
Summary: Nebbia
Visibility: 0 km
2019/09/23 11:55 LIMT 231155Z 00000KT 0000 FG VV/// 10/10 Q1014 RMK MON INVIS VAL INVIS VIS MIN 0000
LIVC - Cimone Mountain, Italy
Dati ricevuti: 18/05/2021 07:55

 Vento da OSO
Vento: OSO 26 km/h
Temperatura: 4°C
Temperatura del Vento: -1°C
P.to Rugiada: -5°C
Umidità: 52%
Barometro: 1017 hPa
2021/05/18 05:55 LIVC 180555Z AUTO 25014KT //// 04/M05 Q1017
 
LIVP - Paganella Mounta, Italy
Dati ricevuti: 17/05/2021 07:55
Non Attivo
Freezing Fog
Freezing Fog
 Vento da N
Vento: N 15 km/h
Temperatura: -1°C
Temperatura del Vento: -6°C
P.to Rugiada: -1°C
Umidità: 100%
Barometro: 1004 hPa
Summary: Freezing Fog
Visibility: 1 km
2021/05/17 05:55 LIVP 170555Z 36008KT 0900 FZFG VV/// M01/M01 Q1004 RMK MON INVIS VAL INVIS VIS MIN 0900
LIML - Milano/Linate, Italy
Dati ricevuti: 18/05/2021 08:50
Sereno
Sereno
 Vento da S
Vento: S 6 km/h
Temperatura: 16°C
P.to Rugiada: 7°C
Umidità: 55%
Barometro: 1013 hPa
Summary: Sereno
Visibility: greater than 10 km
2021/05/18 06:50 LIML 180650Z 17003KT 140V200 CAVOK 16/07 Q1013 NOSIG
 
LIPS - Istrana (it-Afb), Italy
Dati ricevuti: 18/05/2021 07:55
Sereno
Sereno
 Vento da E
Vento: E 7 km/h
Temperatura: 15°C
P.to Rugiada: 12°C
Umidità: 82%
Barometro: 1012 hPa
Summary: Sereno
Visibility: greater than 10 km
2021/05/18 05:55 LIPS 180555Z 09004KT CAVOK 15/12 Q1012 RMK FEW FEW200 VIS MIN 9999 WIND THR26 03003KT WIND THR08 07004KT BLU
LIPH - Treviso(Civ/It-A, Italy
Dati ricevuti: 18/05/2021 08:50
Sereno
Sereno
 Vento da NE
Vento: NE 7 km/h
Temperatura: 16°C
P.to Rugiada: 11°C
Umidità: 72%
Barometro: 1013 hPa
Clouds: Sereno
Visibility: 10 km
2021/05/18 06:50 LIPH 180650Z AUTO 05004KT 010V090 9999 NCD 16/11 Q1013
 
LIPZ - Venezia/Tessera, Italy
Dati ricevuti: 18/05/2021 08:50
Sereno
Sereno
 Vento da NE
Vento: NE 7 km/h
Temperatura: 16°C
P.to Rugiada: 12°C
Umidità: 77%
Barometro: 1013 hPa
Summary: Sereno
Visibility: greater than 10 km
2021/05/18 06:50 LIPZ 180650Z 05004KT 020V080 CAVOK 16/12 Q1013 NOSIG
LIQW - Sarzana/Luni, Italy
Dati ricevuti: 18/05/2021 07:55
Parz. nuvoloso
Parz. nuvoloso
 Vento da NO
Vento: NO 9 km/h
Temperatura: 12°C
P.to Rugiada: 10°C
Umidità: 88%
Barometro: 1014 hPa
Clouds: Parz. nuvoloso
Visibility: 10 km
Cloud details: Parz. nuvoloso 762 m
2021/05/18 05:55 LIQW 180555Z 31005KT 9999 SCT025 12/10 Q1014
 
LIVR - Rolle Pass, Italy
Dati ricevuti: 18/05/2021 07:55
Sereno
Sereno
 Vento da N
Vento: N 6 km/h
Temperatura: 2°C
P.to Rugiada: -8°C
Umidità: 48%
Barometro: 1013 hPa
Summary: Sereno
Visibility: greater than 10 km
2021/05/18 05:55 LIVR 180555Z 01003KT CAVOK 02/M08 Q1013 RMK SKC MON LIB VIS MIN 9999
LIPK - Forli (civ/It-Af, Italy
Dati ricevuti: 18/05/2021 08:50
Sereno
Sereno
 Vento da SO
Vento: SO 9 km/h
Temperatura: 19°C
P.to Rugiada: 8°C
Umidità: 49%
Barometro: 1013 hPa
Summary: Sereno
Visibility: greater than 10 km
2021/05/18 06:50 LIPK 180650Z 22005KT CAVOK 19/08 Q1013
 
LIMV - Giovi Pass, Italy
Dati ricevuti: 17/05/2021 07:55
Non Attivo
Patches of fog, Parz. nuvoloso
Patches of fog, Parz. nuvoloso
 Vento da varies
Vento: varies 0 km/h
Temperatura: 10°C
P.to Rugiada: 9°C
Umidità: 94%
Barometro: 1007 hPa
Summary: Patches of Fog
Clouds: Parz. nuvoloso
Visibility: 10 km
Cloud details: Parz. nuvoloso 91 m
2021/05/17 05:55 LIMV 170555Z /////KT 9999 0500N BCFG SCT003 10/09 Q1007 RMK BKN SCT200 MON N INVIS S LIB VAL N INVIS S NEBBIA SCT VIS MIN 0500N
LIPB - Bolzano(Civ/It-A, Italy
Dati ricevuti: 18/05/2021 08:50
Few Clouds
Few Clouds
 Vento da varies
Vento: varies 4 km/h
Temperatura: 14°C
P.to Rugiada: 4°C
Umidità: 51%
Barometro: 1015 hPa
Clouds: Few Clouds
Visibility: 10 km
Cloud details: Few Clouds 3658 m
2021/05/18 06:50 LIPB 180650Z VRB02KT 9999 FEW120 14/04 Q1015
 
LIVD - Bolzano-Dobbiaco, Italy
Dati ricevuti: 18/05/2021 07:55
Parz. nuvoloso
Parz. nuvoloso
 Vento da varies
Vento: varies 0 km/h
Temperatura: 7°C
P.to Rugiada: 2°C
Umidità: 71%
Barometro: 1015 hPa
Clouds: Parz. nuvoloso
Visibility: 10 km
Cloud details: Parz. nuvoloso 1067 m
2021/05/18 05:55 LIVD 180555Z /////KT 9999 SCT035 07/02 Q1015 RMK SCT VIS MIN 9999
LIVE - Bolzano-Passo Resia, Italy
Dati ricevuti: 18/05/2021 07:55
Parz. nuvoloso
Parz. nuvoloso
 Vento da NNE
Vento: NNE 6 km/h
Temperatura: 5°C
P.to Rugiada: 2°C
Umidità: 81%
Barometro: 1014 hPa
Clouds: Parz. nuvoloso
Visibility: 10 km
Cloud details: Parz. nuvoloso 914 m
2021/05/18 05:55 LIVE 180555Z 02003KT 9999 SCT030 05/02 Q1014 RMK BKN SCT070 VIS MIN 9999
 
LIMH - Aosta-Pian Rosa (mtn T, Italy
Dati ricevuti: 18/05/2021 07:55
Sereno
Sereno
 Vento da NE
Vento: NE 6 km/h
Temperatura: -10°C
P.to Rugiada: -21°C
Umidità: 41%
Barometro: 1015 hPa
Summary: Sereno
Visibility: greater than 10 km
2021/05/18 05:55 LIMH 180555Z 04003KT CAVOK M10/M21 Q1015 RMK FEW FEW100 MON LIB VAL N CLD SCT VIS MIN 9999
LIMZ - Cuneo/Levaldigi, Italy
Dati ricevuti: 18/05/2021 08:50
Molto nuvoloso
Molto nuvoloso
 Vento da S
Vento: S 6 km/h
Temperatura: 16°C
P.to Rugiada: 4°C
Umidità: 45%
Barometro: 1013 hPa
Clouds: Molto nuvoloso
Visibility: 10 km
Cloud details: Molto nuvoloso 4877 m
2021/05/18 06:50 LIMZ 180650Z AUTO 17003KT 130V220 9999 BKN160/// 16/04 Q1013
 
LIMK - Torino-Bric Della Croce, Italy
Dati ricevuti: 16/05/2021 21:55
Non Attivo
Sereno
Sereno
 Vento da calm
Vento: Calma
Temperatura: 13°C
P.to Rugiada: 13°C
Umidità: 100%
Barometro: 1005 hPa
Summary: Sereno
Visibility: greater than 10 km
2021/05/16 19:55 LIMK 161955Z 00000KT CAVOK 13/13 Q1005 RMK SCT SCT070 VAL FOSCHIA VIS MIN 9999
LIMN - Novara-Cameri (it-Afb), Italy
Dati ricevuti: 18/05/2021 07:55
Sereno
Sereno
 Vento da NNO
Vento: NNO 7 km/h
Temperatura: 13°C
P.to Rugiada: 6°C
Umidità: 63%
Barometro: 1012 hPa
Summary: Sereno
Visibility: greater than 10 km
2021/05/18 05:55 LIMN 180555Z 34004KT CAVOK 13/06 Q1012 RMK FEW FEW200 VIS MIN 9999 BLU
 
LIPA - Pordenone-Aviano (it/Us-Af, Italy
Dati ricevuti: 18/05/2021 07:55
Sereno
Sereno
 Vento da OSO
Vento: OSO 6 km/h
Temperatura: 13°C
P.to Rugiada: 10°C
Umidità: 82%
Barometro: 1012 hPa
Summary: Sereno
Visibility: greater than 10 km
2021/05/18 05:55 LIPA 180555Z 24003KT CAVOK 13/10 Q1012 RMK SKC VIS MIN 9999 WIND THR05 /////KT WIND THR23 /////KT A2991 BLU
LIPI - Udine-Rivolto (it-Afb), Italy
Dati ricevuti: 18/05/2021 07:55
Sereno
Sereno
 Vento da NE
Vento: NE 6 km/h
Temperatura: 14°C
P.to Rugiada: 10°C
Umidità: 77%
Barometro: 1012 hPa
Summary: Sereno
Visibility: greater than 10 km
2021/05/18 05:55 LIPI 180555Z 04003KT CAVOK 14/10 Q1012 RMK SKC VIS MIN 9999 WIND THR06 09002KT WIND THR24 09002KT BLU
 
LIVO - Udine-Tarvisio, Italy
Dati ricevuti: 18/05/2021 07:55
Sereno
Sereno
 Vento da calm
Vento: Calma
Temperatura: 5°C
P.to Rugiada: 3°C
Umidità: 87%
Barometro: 1013 hPa
Summary: Sereno
Visibility: greater than 10 km
2021/05/18 05:55 LIVO 180555Z 00000KT CAVOK 05/03 Q1013 RMK SKC VIS MIN 9999
LIPQ - Trieste-Ronchi Dei Legionari, Italy
Dati ricevuti: 18/05/2021 08:50
Sereno
Sereno
 Vento da varies
Vento: varies 2 km/h
Temperatura: 17°C
P.to Rugiada: 9°C
Umidità: 59%
Barometro: 1013 hPa
Clouds: Sereno
Visibility: 10 km
2021/05/18 06:50 LIPQ 180650Z AUTO VRB01KT 9999 NCD 17/09 Q1013
 
LIVT - Trieste, Italy
Dati ricevuti: 18/05/2021 07:55
Sereno
Sereno
 Vento da calm
Vento: Calma
Temperatura: 15°C
P.to Rugiada: 9°C
Umidità: 68%
Barometro: 1012 hPa
Summary: Sereno
Visibility: greater than 10 km
2021/05/18 05:55 LIVT 180555Z 00000KT CAVOK 15/09 Q1012 RMK SKC QUK 0 QUL 0 VIS MAR 20 KM VIS MIN 9999
LIRQ - Firenze/Peretola, Italy
Dati ricevuti: 18/05/2021 08:50
Few Clouds
Few Clouds
 Vento da varies
Vento: varies 4 km/h
Temperatura: 15°C
P.to Rugiada: 12°C
Umidità: 82%
Barometro: 1016 hPa
Clouds: Few Clouds
Visibility: 10 km
Cloud details: Few Clouds 1219 m
2021/05/18 06:50 LIRQ 180650Z VRB02KT 9999 FEW040 15/12 Q1016
 
LIPK - Forli (civ/It-Af, Italy
Dati ricevuti: 18/05/2021 08:50
Sereno
Sereno
 Vento da SO
Vento: SO 9 km/h
Temperatura: 19°C
P.to Rugiada: 8°C
Umidità: 49%
Barometro: 1013 hPa
Summary: Sereno
Visibility: greater than 10 km
2021/05/18 06:50 LIPK 180650Z 22005KT CAVOK 19/08 Q1013
LIRS - Grosseto (it-Afb, Italy
Dati ricevuti: 18/05/2021 07:55
Sereno
Sereno
 Vento da NNE
Vento: NNE 6 km/h
Temperatura: 13°C
P.to Rugiada: 11°C
Umidità: 88%
Barometro: 1015 hPa
Summary: Sereno
Visibility: greater than 10 km
2021/05/18 05:55 LIRS 180555Z 02003KT CAVOK 13/11 Q1015
 
LIRP - Pisa (civ/It-Afb, Italy
Dati ricevuti: 18/05/2021 08:45
Few Clouds
Few Clouds
 Vento da ESE
Vento: ESE 15 km/h
Temperatura: 13°C
P.to Rugiada: 12°C
Umidità: 94%
Barometro: 1015 hPa
Clouds: Few Clouds
Visibility: 10 km
Cloud details: Few Clouds 762 m
2021/05/18 06:45 LIRP 180645Z 12008KT 9999 FEW025 13/12 Q1015 NOSIG
LIVF - Frontone, Italy
Dati ricevuti: 15/05/2021 06:55
Non Attivo
Parz. nuvoloso
Parz. nuvoloso
 Vento da ONO
Vento: ONO 4 km/h
Temperatura: 9°C
P.to Rugiada: 8°C
Umidità: 94%
Barometro: 1009 hPa
Clouds: Parz. nuvoloso
Visibility: 10 km
Cloud details: Parz. nuvoloso 1280 m
2021/05/15 04:55 LIVF 150455Z 30002KT 9999 SCT042 09/08 Q1009 RMK OVC SCT080 MON S W CLD CIME VAL W NEBBIA DIM ELEV VIS MIN 9999
 
LIPC - Cervia (it-Afb), Italy
Dati ricevuti: 18/05/2021 07:55
Sereno
Sereno
 Vento da NO
Vento: NO 6 km/h
Temperatura: 14°C
P.to Rugiada: 10°C
Umidità: 77%
Barometro: 1013 hPa
Summary: Sereno
Visibility: greater than 10 km
2021/05/18 05:55 LIPC 180555Z 32003KT CAVOK 14/10 Q1013
LIPR - Rimini (civ/It-A, Italy
Dati ricevuti: 18/05/2021 08:50
Sereno
Sereno
 Vento da E
Vento: E 6 km/h
Summary: Sereno
Visibility: greater than 10 km
2021/05/18 06:50 LIPR 180650Z 08003KT 020V190 CAVOK 19/0
 
LIRX - Monte Calamita, Italy
Dati ricevuti: 18/05/2021 07:55
Few Clouds
Few Clouds
 Vento da SSE
Vento: SSE 7 km/h
Temperatura: 14°C
P.to Rugiada: 11°C
Umidità: 82%
Barometro: 1014 hPa
Clouds: Few Clouds
Visibility: 10 km
Cloud details: Few Clouds 1524 m
2021/05/18 05:55 LIRX 180555Z 15004KT 9999 FEW050 14/11 Q1014 RMK SCT SCT170 VIS MIN 9999 VIS MAR 25 KM
LIVM - Punta Marina/Rav, Italy
Dati ricevuti: 18/05/2021 07:55
Sereno
Sereno
 Vento da varies
Vento: varies 6 km/h
Temperatura: 10°C
P.to Rugiada: 8°C
Umidità: 88%
Barometro: 1012 hPa
Summary: Sereno
Visibility: greater than 10 km
2021/05/18 05:55 LIVM 180555Z VRB03KT CAVOK 10/08 Q1012 RMK SKC QUK 1 QUL 0 VIS MAR 15 KM VIS MIN 9999